Main page
METAR-TAF:

METAR-TAF

Airports :

Burgos Airport

Burgos, Spain

latitude: 42-22N, longitude: 003-38W, elevation: 894 m

Current weather observation

The report was made 35 minutes ago, at 23:30 UTC
Wind 8 kt from the Northeast
Temperature 15°C
Humidity 77%
Pressure 1025 hPa
Visibility 10 km or more
no clouds below 1500 m and no cumulonimbus

METAR: LEBG 052330Z AUTO 04008KT CAVOK 15/11 Q1025

Time: 02:05 (00:05 UTC)

Forecast

The report was made 7 hours and 5 minutes ago, at 17:00 UTC
Forecast valid from 05 at 18 UTC to 06 at 03 UTC
Wind 16 kt from the Northeast
Visibility 10 km or more
no clouds below 1500 m and no cumulonimbus
Probability 40% :
Temporary
from 05 at 18 UTC to 06 at 03 UTC
Wind 16 kt from the Northeast with gusts up to 26 kt

TAF: LEBG 051700Z 0518/0603 05016KT CAVOK PROB40 TEMPO 0518/0603 05016G26KT

Weather observations and forecasts of more than 4000 airports (METAR and TAF reports).

The available stations are represented by yellow and red dots on the map.

Hover mouse over dot to see the name of the station.

Then click to see weather observations and forecasts.

To change the map : click on the green buttons with a black cross to zoom in, on the green button with a dash to zoom out, or on the green arrows for adjacent maps.


METAR-TAF: